Time;durP1;ratioP1;P1;durP2;ratioP2;P2;SDS_P1;SDS_P2;PMS_P1;PMS_P2;Temp;Humidity;BMP_temperature;BMP_pressure;BME280_temperature;BME280_humidity;BME280_pressure;Samples;Min_cycle;Max_cycle;Signal;HPM_P1;HPM_P2
2022/09/30 00:00:22;;;;;;;4.72;1.52;;;;;;;;;;10381761;28;20026;-58
2022/09/30 00:05:22;;;;;;;6.55;1.70;;;;;;;;;;10381747;28;20489;-58
2022/09/30 00:10:22;;;;;;;4.55;1.30;;;;;;;;;;10381600;28;20453;-58
2022/09/30 00:15:23;;;;;;;4.93;1.23;;;;;;;;;;10380889;28;20041;-58
2022/09/30 00:20:23;;;;;;;6.18;1.52;;;;;;;;;;10381018;28;20030;-57
2022/09/30 00:25:23;;;;;;;3.95;1.50;;;;;;;;;;10380591;28;20025;-58
2022/09/30 00:30:23;;;;;;;7.63;1.85;;;;;;;;;;10381296;28;20097;-56
2022/09/30 00:35:24;;;;;;;3.47;1.10;;;;;;;;;;10380635;28;20507;-58
2022/09/30 00:40:25;;;;;;;3.35;1.23;;;;;;;;;;10380742;28;20041;-57
2022/09/30 00:45:26;;;;;;;2.08;1.13;;;;;;;;;;10380495;28;20084;-56
2022/09/30 00:50:47;;;;;;;1.23;1.10;;;;;;;;;;10380916;28;20061;-57
2022/09/30 00:55:56;;;;;;;3.28;1.10;;;;;;;;;;10380187;28;20026;-58
2022/09/30 01:00:58;;;;;;;3.15;1.23;;;;;;;;;;10374095;28;20026;-58
2022/09/30 01:05:58;;;;;;;5.72;1.30;;;;;;;;;;10374147;28;20454;-58
2022/09/30 01:10:58;;;;;;;1.95;0.98;;;;;;;;;;10373064;28;20029;-58
2022/09/30 01:16:11;;;;;;;1.90;1.20;;;;;;;;;;10373112;28;20418;-56
2022/09/30 01:21:23;;;;;;;1.73;1.20;;;;;;;;;;10373126;28;20061;-58
2022/09/30 01:26:45;;;;;;;2.45;1.20;;;;;;;;;;10373627;28;20103;-58
2022/09/30 01:31:45;;;;;;;1.38;1.20;;;;;;;;;;10372820;28;20469;-58
2022/09/30 01:36:51;;;;;;;1.52;1.35;;;;;;;;;;10372665;28;20099;-59
2022/09/30 01:41:53;;;;;;;5.50;1.45;;;;;;;;;;10372133;28;20612;-59
2022/09/30 01:46:58;;;;;;;4.43;1.35;;;;;;;;;;10371905;28;20068;-60
2022/09/30 01:51:58;;;;;;;5.57;1.20;;;;;;;;;;10372735;28;20029;-59
2022/09/30 01:57:02;;;;;;;2.53;1.00;;;;;;;;;;10371684;28;20022;-60
2022/09/30 02:02:18;;;;;;;2.25;1.23;;;;;;;;;;10371303;28;20388;-59
2022/09/30 02:07:27;;;;;;;2.03;1.15;;;;;;;;;;10371400;28;20060;-60
2022/09/30 02:12:31;;;;;;;3.60;1.30;;;;;;;;;;10370472;28;20057;-59
2022/09/30 02:17:32;;;;;;;1.00;0.90;;;;;;;;;;10371023;28;20022;-60
2022/09/30 02:22:42;;;;;;;2.50;1.10;;;;;;;;;;10370563;28;20037;-59
2022/09/30 02:27:45;;;;;;;2.03;1.13;;;;;;;;;;10371009;28;20109;-59
2022/09/30 02:32:48;;;;;;;1.27;1.00;;;;;;;;;;10369796;28;20064;-58
2022/09/30 02:37:51;;;;;;;2.00;0.95;;;;;;;;;;10370069;28;20377;-58
2022/09/30 02:42:51;;;;;;;4.10;1.00;;;;;;;;;;10370405;28;20026;-58
2022/09/30 02:48:01;;;;;;;2.85;0.90;;;;;;;;;;10370198;28;20030;-58
2022/09/30 02:53:20;;;;;;;2.92;1.05;;;;;;;;;;10370070;28;20053;-58
2022/09/30 02:58:24;;;;;;;6.68;1.30;;;;;;;;;;10369856;28;20030;-58
2022/09/30 03:03:31;;;;;;;2.08;0.90;;;;;;;;;;10369590;28;20038;-58
2022/09/30 03:08:31;;;;;;;2.33;0.93;;;;;;;;;;10369159;28;20054;-58
2022/09/30 03:13:34;;;;;;;2.10;1.10;;;;;;;;;;10368691;28;20108;-58
2022/09/30 03:18:49;;;;;;;3.08;1.35;;;;;;;;;;10368623;28;20478;-58
2022/09/30 03:24:09;;;;;;;1.58;0.90;;;;;;;;;;10367720;28;20030;-58
2022/09/30 03:29:12;;;;;;;2.53;1.20;;;;;;;;;;10346921;28;20034;-58
2022/09/30 03:34:18;;;;;;;3.92;0.90;;;;;;;;;;10368163;28;20052;-58
2022/09/30 03:39:25;;;;;;;1.67;1.00;;;;;;;;;;10368688;28;20053;-57
2022/09/30 03:44:28;;;;;;;0.80;0.80;;;;;;;;;;10368334;28;20034;-58
2022/09/30 03:49:35;;;;;;;3.33;1.02;;;;;;;;;;10367851;28;20026;-58
2022/09/30 03:54:46;;;;;;;3.72;0.82;;;;;;;;;;10367779;28;20083;-58
2022/09/30 03:59:46;;;;;;;1.38;1.00;;;;;;;;;;10367725;28;20057;-58
2022/09/30 04:04:46;;;;;;;1.48;0.82;;;;;;;;;;10367411;28;20025;-58
2022/09/30 04:09:47;;;;;;;1.53;1.10;;;;;;;;;;10368037;28;20425;-58
2022/09/30 04:14:47;;;;;;;3.33;0.95;;;;;;;;;;10367343;28;20477;-57
2022/09/30 04:19:48;;;;;;;0.98;0.85;;;;;;;;;;10367743;28;20026;-58
2022/09/30 04:24:48;;;;;;;1.85;1.10;;;;;;;;;;10367056;28;20231;-56
2022/09/30 04:29:49;;;;;;;0.85;0.82;;;;;;;;;;10366908;28;20080;-57
2022/09/30 04:34:49;;;;;;;1.00;0.77;;;;;;;;;;10371353;28;20037;-58
2022/09/30 04:39:49;;;;;;;4.00;1.10;;;;;;;;;;10374546;28;20109;-57
2022/09/30 04:44:50;;;;;;;1.17;1.08;;;;;;;;;;10374454;28;20094;-58
2022/09/30 04:49:50;;;;;;;1.88;0.90;;;;;;;;;;10374513;28;20054;-58
2022/09/30 04:54:50;;;;;;;2.25;1.10;;;;;;;;;;10374028;28;20159;-58
2022/09/30 04:59:51;;;;;;;1.52;0.93;;;;;;;;;;10373851;28;20025;-56
2022/09/30 05:04:52;;;;;;;1.50;0.90;;;;;;;;;;10373397;28;20389;-57
2022/09/30 05:09:53;;;;;;;1.55;0.90;;;;;;;;;;10374425;28;20036;-58
2022/09/30 05:14:53;;;;;;;1.30;0.90;;;;;;;;;;10373494;28;20046;-58
2022/09/30 05:19:53;;;;;;;3.38;1.10;;;;;;;;;;10373539;28;20033;-59
2022/09/30 05:24:57;;;;;;;1.27;1.00;;;;;;;;;;10373058;28;20030;-59
2022/09/30 05:29:57;;;;;;;0.80;0.80;;;;;;;;;;10372763;28;20065;-58
2022/09/30 05:34:57;;;;;;;0.98;0.90;;;;;;;;;;10372121;28;20054;-58
2022/09/30 05:39:58;;;;;;;0.95;0.90;;;;;;;;;;10372021;28;20105;-58
2022/09/30 05:44:58;;;;;;;1.33;0.80;;;;;;;;;;10371790;28;20052;-58
2022/09/30 05:49:58;;;;;;;2.08;1.10;;;;;;;;;;10372239;28;20775;-57
2022/09/30 05:55:00;;;;;;;1.33;0.93;;;;;;;;;;10372135;28;20397;-57
2022/09/30 06:00:00;;;;;;;2.10;1.00;;;;;;;;;;10371339;28;20429;-56
2022/09/30 06:05:01;;;;;;;1.93;0.90;;;;;;;;;;10371019;28;20085;-57
2022/09/30 06:10:01;;;;;;;1.15;0.80;;;;;;;;;;10370954;28;20026;-55
2022/09/30 06:15:02;;;;;;;1.20;1.10;;;;;;;;;;10371371;28;20081;-57
2022/09/30 06:20:04;;;;;;;1.57;0.83;;;;;;;;;;10370648;28;20033;-57
2022/09/30 06:25:04;;;;;;;5.00;1.27;;;;;;;;;;10370668;28;20034;-56
2022/09/30 06:30:05;;;;;;;2.10;1.20;;;;;;;;;;10370247;28;20030;-58
2022/09/30 06:35:06;;;;;;;1.65;1.20;;;;;;;;;;10370410;28;20037;-56
2022/09/30 06:40:06;;;;;;;6.53;1.70;;;;;;;;;;10369775;28;20030;-57
2022/09/30 06:45:07;;;;;;;2.47;1.15;;;;;;;;;;10370037;28;20033;-55
2022/09/30 06:50:08;;;;;;;4.28;1.40;;;;;;;;;;10370034;28;20026;-57
2022/09/30 06:55:08;;;;;;;2.75;1.25;;;;;;;;;;10369614;28;20426;-57
2022/09/30 07:00:09;;;;;;;2.97;1.20;;;;;;;;;;10368713;28;20034;-57
2022/09/30 07:05:09;;;;;;;2.97;1.17;;;;;;;;;;10369220;28;20034;-57
2022/09/30 07:10:10;;;;;;;5.90;1.10;;;;;;;;;;10369249;28;20362;-57
2022/09/30 07:15:10;;;;;;;3.92;1.17;;;;;;;;;;10368269;28;20042;-58
2022/09/30 07:20:10;;;;;;;2.63;1.20;;;;;;;;;;10369094;28;20054;-58
2022/09/30 07:25:11;;;;;;;2.78;1.27;;;;;;;;;;10367972;28;20038;-57
2022/09/30 07:30:11;;;;;;;4.87;1.30;;;;;;;;;;10368146;28;20029;-56
2022/09/30 07:35:11;;;;;;;2.75;1.17;;;;;;;;;;10368065;28;20501;-58
2022/09/30 07:40:11;;;;;;;3.25;1.10;;;;;;;;;;10368849;28;20292;-55
2022/09/30 07:45:15;;;;;;;1.75;1.13;;;;;;;;;;10367854;28;20037;-57
2022/09/30 07:50:16;;;;;;;4.90;1.30;;;;;;;;;;10367453;28;20034;-58
2022/09/30 07:55:16;;;;;;;4.57;0.93;;;;;;;;;;10367777;28;20030;-58
2022/09/30 08:00:16;;;;;;;1.95;1.35;;;;;;;;;;10367346;28;20107;-58
2022/09/30 08:05:17;;;;;;;4.77;1.47;;;;;;;;;;10367049;28;20026;-56
2022/09/30 08:10:17;;;;;;;3.27;1.20;;;;;;;;;;10372031;28;20028;-56
2022/09/30 08:15:17;;;;;;;3.03;1.30;;;;;;;;;;10374150;28;20053;-55
2022/09/30 08:20:18;;;;;;;2.00;1.25;;;;;;;;;;10374923;28;20030;-57
2022/09/30 08:25:18;;;;;;;2.78;1.02;;;;;;;;;;10375216;28;20086;-58
2022/09/30 08:30:18;;;;;;;1.80;1.00;;;;;;;;;;10375281;28;20045;-57
2022/09/30 08:35:19;;;;;;;4.00;1.30;;;;;;;;;;10374461;28;20443;-58
2022/09/30 08:40:25;;;;;;;3.83;1.17;;;;;;;;;;10373705;28;20092;-58
2022/09/30 08:45:33;;;;;;;3.30;1.20;;;;;;;;;;10374262;28;20034;-57
2022/09/30 08:50:53;;;;;;;1.77;1.17;;;;;;;;;;10374393;28;20053;-56
2022/09/30 08:55:56;;;;;;;2.22;1.30;;;;;;;;;;10371317;28;20424;-56
2022/09/30 09:01:18;;;;;;;2.55;0.98;;;;;;;;;;10373103;28;20042;-56
2022/09/30 09:06:26;;;;;;;1.60;1.33;;;;;;;;;;10356040;28;20041;-58
2022/09/30 09:11:41;;;;;;;2.72;1.00;;;;;;;;;;10373162;28;20038;-58
2022/09/30 09:16:45;;;;;;;1.52;1.20;;;;;;;;;;10372972;28;20034;-58
2022/09/30 09:21:45;;;;;;;2.22;1.02;;;;;;;;;;10371992;28;20036;-58
2022/09/30 09:26:46;;;;;;;4.67;1.30;;;;;;;;;;10372963;28;20022;-58
2022/09/30 09:31:47;;;;;;;2.10;1.27;;;;;;;;;;10372714;28;20041;-58
2022/09/30 09:37:06;;;;;;;4.20;1.00;;;;;;;;;;10372780;28;20030;-58
2022/09/30 09:42:24;;;;;;;1.30;1.08;;;;;;;;;;10372301;28;20095;-58
2022/09/30 09:47:25;;;;;;;2.30;1.15;;;;;;;;;;10373111;28;20030;-57
2022/09/30 09:52:28;;;;;;;1.63;1.07;;;;;;;;;;10371714;28;20113;-58
2022/09/30 09:57:31;;;;;;;4.20;1.50;;;;;;;;;;10371741;28;20030;-58
2022/09/30 10:02:31;;;;;;;3.28;1.08;;;;;;;;;;10371556;28;20029;-60
2022/09/30 10:07:32;;;;;;;3.50;1.00;;;;;;;;;;10371234;28;20104;-59
2022/09/30 10:12:33;;;;;;;1.20;0.93;;;;;;;;;;10370742;28;20050;-59
2022/09/30 10:17:34;;;;;;;2.97;1.00;;;;;;;;;;10370817;28;20153;-59
2022/09/30 10:22:35;;;;;;;3.10;1.33;;;;;;;;;;10370664;28;20463;-58
2022/09/30 10:27:37;;;;;;;2.17;0.90;;;;;;;;;;10370016;28;20413;-59
2022/09/30 10:32:40;;;;;;;2.33;1.00;;;;;;;;;;10369007;28;20056;-60
2022/09/30 10:37:49;;;;;;;3.47;1.00;;;;;;;;;;10368778;28;20036;-58
2022/09/30 10:42:50;;;;;;;1.75;1.00;;;;;;;;;;10367874;28;20076;-59
2022/09/30 10:47:52;;;;;;;1.58;0.90;;;;;;;;;;10368733;28;20116;-58
2022/09/30 10:52:52;;;;;;;2.55;1.10;;;;;;;;;;10370365;28;20381;-58
2022/09/30 10:57:53;;;;;;;2.08;1.10;;;;;;;;;;10369553;28;20026;-60
2022/09/30 11:02:56;;;;;;;1.90;0.95;;;;;;;;;;10369080;28;20388;-59
2022/09/30 11:07:56;;;;;;;2.88;1.05;;;;;;;;;;10368450;28;20393;-59
2022/09/30 11:13:09;;;;;;;1.60;1.17;;;;;;;;;;10368283;28;20046;-59
2022/09/30 11:18:09;;;;;;;1.98;1.17;;;;;;;;;;10368176;28;20025;-60
2022/09/30 11:23:15;;;;;;;1.60;0.90;;;;;;;;;;10367979;28;20033;-60
2022/09/30 11:28:27;;;;;;;1.27;1.08;;;;;;;;;;10367667;28;20378;-59
2022/09/30 11:33:48;;;;;;;2.20;1.20;;;;;;;;;;10367782;28;20473;-60
2022/09/30 11:39:07;;;;;;;1.80;0.90;;;;;;;;;;10360008;28;20394;-59
2022/09/30 11:44:16;;;;;;;2.50;1.08;;;;;;;;;;10367241;28;20516;-60
2022/09/30 11:49:19;;;;;;;1.55;0.80;;;;;;;;;;10367897;28;20084;-58
2022/09/30 11:54:27;;;;;;;0.95;0.88;;;;;;;;;;10367465;28;20037;-58
2022/09/30 11:59:40;;;;;;;1.35;0.90;;;;;;;;;;10366927;28;20412;-59
2022/09/30 12:04:42;;;;;;;1.58;1.00;;;;;;;;;;10367077;28;20091;-60
2022/09/30 12:09:45;;;;;;;0.93;0.90;;;;;;;;;;10367035;28;20030;-58
2022/09/30 12:14:58;;;;;;;2.15;1.20;;;;;;;;;;10366615;28;20054;-59
2022/09/30 12:20:06;;;;;;;1.67;1.00;;;;;;;;;;10367370;28;20049;-58
2022/09/30 12:25:15;;;;;;;1.17;0.90;;;;;;;;;;10368283;28;20125;-59
2022/09/30 12:30:21;;;;;;;3.90;0.88;;;;;;;;;;10366632;28;20034;-58
2022/09/30 12:35:21;;;;;;;2.53;0.95;;;;;;;;;;10365476;28;20041;-60
2022/09/30 12:40:34;;;;;;;1.73;1.00;;;;;;;;;;10367219;28;20034;-58
2022/09/30 12:45:43;;;;;;;1.65;1.00;;;;;;;;;;10366204;28;20194;-59
2022/09/30 12:50:56;;;;;;;1.08;0.90;;;;;;;;;;10366599;28;20097;-58
2022/09/30 12:56:08;;;;;;;1.63;1.00;;;;;;;;;;10369476;28;20032;-57
2022/09/30 13:01:15;;;;;;;1.80;1.00;;;;;;;;;;10373507;28;20088;-57
2022/09/30 13:06:17;;;;;;;3.33;1.08;;;;;;;;;;10374806;28;20477;-56
2022/09/30 13:11:32;;;;;;;4.72;1.10;;;;;;;;;;10373603;28;20466;-57
2022/09/30 13:16:53;;;;;;;4.72;1.10;;;;;;;;;;10373430;28;20205;-56
2022/09/30 13:22:13;;;;;;;1.42;1.00;;;;;;;;;;10371928;28;20037;-59
2022/09/30 13:27:14;;;;;;;1.65;1.10;;;;;;;;;;10371666;28;20381;-58
2022/09/30 13:32:29;;;;;;;2.03;1.00;;;;;;;;;;10372967;28;20036;-58
2022/09/30 13:37:32;;;;;;;1.23;0.80;;;;;;;;;;10373040;28;20532;-58
2022/09/30 13:42:38;;;;;;;1.63;0.88;;;;;;;;;;10372640;28;20116;-58
2022/09/30 13:47:49;;;;;;;1.67;1.08;;;;;;;;;;10373131;28;20033;-57
2022/09/30 13:52:53;;;;;;;5.57;1.00;;;;;;;;;;10371656;28;20401;-58
2022/09/30 13:58:15;;;;;;;2.42;1.00;;;;;;;;;;10372244;28;20121;-58
2022/09/30 14:03:15;;;;;;;6.85;1.10;;;;;;;;;;10371873;28;20034;-57
2022/09/30 14:08:30;;;;;;;1.70;1.00;;;;;;;;;;10371016;28;20037;-56
2022/09/30 14:13:50;;;;;;;4.00;1.10;;;;;;;;;;10371413;28;20038;-58
2022/09/30 14:19:02;;;;;;;2.22;1.05;;;;;;;;;;10369905;28;20036;-58
2022/09/30 14:24:08;;;;;;;1.80;0.90;;;;;;;;;;10370711;28;20032;-58
2022/09/30 14:29:14;;;;;;;0.85;0.80;;;;;;;;;;10370829;28;20114;-57
2022/09/30 14:34:16;;;;;;;1.10;1.00;;;;;;;;;;10370909;28;20034;-57
2022/09/30 14:39:18;;;;;;;2.65;1.10;;;;;;;;;;10370439;28;20041;-58
2022/09/30 14:44:19;;;;;;;4.97;1.10;;;;;;;;;;10369890;28;20444;-58
2022/09/30 14:49:27;;;;;;;7.70;1.30;;;;;;;;;;10370497;28;20092;-57
2022/09/30 14:54:28;;;;;;;2.85;1.10;;;;;;;;;;10370356;28;20057;-57
2022/09/30 14:59:33;;;;;;;2.17;1.45;;;;;;;;;;10370353;28;20033;-57
2022/09/30 15:04:37;;;;;;;2.70;1.30;;;;;;;;;;10369973;28;20095;-58
2022/09/30 15:09:38;;;;;;;2.83;0.95;;;;;;;;;;10369040;28;20030;-57
2022/09/30 15:14:46;;;;;;;3.20;1.10;;;;;;;;;;10367392;28;20045;-56
2022/09/30 15:19:47;;;;;;;3.55;1.00;;;;;;;;;;10367787;28;20054;-58
2022/09/30 15:24:48;;;;;;;11.63;1.50;;;;;;;;;;10368834;28;20112;-56
2022/09/30 15:29:55;;;;;;;2.00;1.15;;;;;;;;;;10368674;28;20080;-55
2022/09/30 15:34:57;;;;;;;2.67;1.25;;;;;;;;;;10368518;28;20507;-56
2022/09/30 15:45:28;;;;;;;4.35;1.85;;;;;;;;;;10369519;28;20117;-56
2022/09/30 15:50:40;;;;;;;2.22;1.20;;;;;;;;;;10367556;28;20034;-59
2022/09/30 15:55:42;;;;;;;4.53;1.52;;;;;;;;;;10368031;28;20054;-55
2022/09/30 16:00:44;;;;;;;2.00;1.30;;;;;;;;;;10368931;28;20469;-56
2022/09/30 16:05:45;;;;;;;4.82;1.40;;;;;;;;;;10367607;28;20454;-56
2022/09/30 16:10:47;;;;;;;5.85;1.33;;;;;;;;;;10367925;28;20421;-58
2022/09/30 16:15:49;;;;;;;4.25;1.55;;;;;;;;;;10366307;28;20110;-57
2022/09/30 16:21:01;;;;;;;5.97;1.50;;;;;;;;;;10366331;28;20022;-57
2022/09/30 16:26:11;;;;;;;2.80;1.30;;;;;;;;;;10366350;28;20087;-56
2022/09/30 16:31:12;;;;;;;4.60;1.52;;;;;;;;;;10372195;28;20033;-56
2022/09/30 16:36:13;;;;;;;2.35;1.20;;;;;;;;;;10375462;28;20112;-56
2022/09/30 16:41:13;;;;;;;4.50;1.60;;;;;;;;;;10374112;28;20113;-58
2022/09/30 16:46:14;;;;;;;3.47;1.23;;;;;;;;;;10373682;28;20036;-56
2022/09/30 16:51:15;;;;;;;4.47;1.20;;;;;;;;;;10374244;28;20428;-56
2022/09/30 16:56:18;;;;;;;3.05;1.23;;;;;;;;;;10373606;28;20037;-56
2022/09/30 17:01:19;;;;;;;2.92;1.45;;;;;;;;;;10372087;28;20022;-56
2022/09/30 17:06:24;;;;;;;2.92;1.23;;;;;;;;;;10373881;28;20496;-56
2022/09/30 17:16:34;;;;;;;3.20;1.10;;;;;;;;;;10411909;28;20089;-58
2022/09/30 17:21:35;;;;;;;2.58;1.73;;;;;;;;;;10413807;28;20092;-59
2022/09/30 17:26:37;;;;;;;1.95;1.30;;;;;;;;;;10413398;28;20108;-59
2022/09/30 17:31:38;;;;;;;8.02;1.73;;;;;;;;;;10411592;28;20044;-58
2022/09/30 17:36:38;;;;;;;2.50;1.30;;;;;;;;;;10412194;28;20021;-60
2022/09/30 17:46:59;;;;;;;3.75;1.40;;;;;;;;;;10413044;28;20037;-62
2022/09/30 17:52:00;;;;;;;3.35;1.63;;;;;;;;;;10413456;28;20030;-59
2022/09/30 17:57:00;;;;;;;1.83;1.10;;;;;;;;;;10411664;28;20083;-62
2022/09/30 18:02:01;;;;;;;5.40;1.30;;;;;;;;;;10412065;28;20121;-62
2022/09/30 18:07:01;;;;;;;2.47;1.20;;;;;;;;;;10411793;28;20134;-62
2022/09/30 18:12:03;;;;;;;5.97;1.33;;;;;;;;;;10411995;28;20463;-62
2022/09/30 18:17:04;;;;;;;6.03;1.30;;;;;;;;;;10412777;28;20040;-62
2022/09/30 18:22:04;;;;;;;5.05;1.40;;;;;;;;;;10412331;28;20109;-62
2022/09/30 18:27:05;;;;;;;2.60;1.40;;;;;;;;;;10412520;28;20445;-62
2022/09/30 18:32:05;;;;;;;5.97;1.20;;;;;;;;;;10411804;28;20112;-62
2022/09/30 18:37:05;;;;;;;6.20;1.27;;;;;;;;;;10411837;28;20049;-62
2022/09/30 18:42:06;;;;;;;1.47;1.20;;;;;;;;;;10410881;28;20028;-60
2022/09/30 18:47:06;;;;;;;2.95;1.10;;;;;;;;;;10410904;28;20185;-58
2022/09/30 18:52:07;;;;;;;1.60;1.30;;;;;;;;;;10410969;28;20038;-57
2022/09/30 18:57:07;;;;;;;2.95;1.30;;;;;;;;;;10411400;28;20017;-58
2022/09/30 19:02:12;;;;;;;3.95;1.42;;;;;;;;;;10410442;28;20041;-57
2022/09/30 19:07:12;;;;;;;2.15;1.20;;;;;;;;;;10410283;28;20488;-58
2022/09/30 19:12:16;;;;;;;2.13;1.15;;;;;;;;;;10409811;28;20080;-58
2022/09/30 19:17:16;;;;;;;2.28;1.30;;;;;;;;;;10409840;28;20033;-58
2022/09/30 19:22:16;;;;;;;3.15;1.20;;;;;;;;;;10410429;28;20038;-58
2022/09/30 19:27:17;;;;;;;5.10;1.20;;;;;;;;;;10409961;28;20488;-58
2022/09/30 19:32:17;;;;;;;1.75;1.23;;;;;;;;;;10409606;28;20276;-59
2022/09/30 19:37:18;;;;;;;3.92;1.40;;;;;;;;;;10409673;28;20369;-59
2022/09/30 19:42:18;;;;;;;3.05;1.30;;;;;;;;;;10409411;28;20057;-58
2022/09/30 19:47:18;;;;;;;3.03;1.40;;;;;;;;;;10409293;28;20029;-62
2022/09/30 19:52:19;;;;;;;1.93;1.30;;;;;;;;;;10409683;28;20033;-62
2022/09/30 19:57:21;;;;;;;5.70;1.35;;;;;;;;;;10409508;28;20052;-62
2022/09/30 20:02:21;;;;;;;1.83;1.20;;;;;;;;;;10408299;28;20071;-62
2022/09/30 20:07:22;;;;;;;1.67;1.10;;;;;;;;;;10415839;28;20071;-62
2022/09/30 20:12:22;;;;;;;3.33;1.30;;;;;;;;;;10416985;28;20386;-61
2022/09/30 20:17:22;;;;;;;2.13;1.17;;;;;;;;;;10417408;28;20048;-62
2022/09/30 20:22:23;;;;;;;1.08;1.00;;;;;;;;;;10416609;28;20466;-62
2022/09/30 20:27:23;;;;;;;2.47;1.53;;;;;;;;;;10416493;28;20025;-62
2022/09/30 20:32:26;;;;;;;1.17;1.08;;;;;;;;;;10416847;28;20447;-62
2022/09/30 20:37:26;;;;;;;2.45;1.42;;;;;;;;;;10416649;28;20034;-63
2022/09/30 20:42:27;;;;;;;1.37;1.20;;;;;;;;;;10416490;28;20034;-64
2022/09/30 20:47:27;;;;;;;1.33;1.23;;;;;;;;;;10415676;28;20029;-63
2022/09/30 20:52:28;;;;;;;1.55;1.10;;;;;;;;;;10415714;28;20495;-64
2022/09/30 20:57:28;;;;;;;1.48;1.27;;;;;;;;;;10415659;28;20095;-62
2022/09/30 21:02:29;;;;;;;5.53;1.95;;;;;;;;;;10414452;28;20544;-63
2022/09/30 21:07:29;;;;;;;3.45;1.30;;;;;;;;;;10415453;28;20465;-61
2022/09/30 21:12:30;;;;;;;5.90;1.83;;;;;;;;;;10414090;28;20064;-63
2022/09/30 21:17:30;;;;;;;2.90;1.40;;;;;;;;;;10411653;28;20362;-63
2022/09/30 21:22:30;;;;;;;8.27;1.50;;;;;;;;;;10412784;28;20473;-63
2022/09/30 21:27:31;;;;;;;5.13;1.40;;;;;;;;;;10413718;28;20485;-64
2022/09/30 21:32:33;;;;;;;5.93;1.30;;;;;;;;;;10414053;28;20062;-63
2022/09/30 21:37:33;;;;;;;3.17;1.35;;;;;;;;;;10414488;28;20057;-63
2022/09/30 21:42:33;;;;;;;4.85;1.48;;;;;;;;;;10413537;28;20453;-59
2022/09/30 21:47:34;;;;;;;2.53;1.45;;;;;;;;;;10413513;28;20059;-59
2022/09/30 21:52:36;;;;;;;3.15;1.60;;;;;;;;;;10413637;28;20056;-59
2022/09/30 21:57:37;;;;;;;2.33;1.33;;;;;;;;;;10413077;28;20564;-58
2022/09/30 22:02:37;;;;;;;2.33;1.27;;;;;;;;;;10412710;28;20028;-59
2022/09/30 22:07:38;;;;;;;1.80;1.20;;;;;;;;;;10413088;28;20034;-58
2022/09/30 22:12:38;;;;;;;3.17;1.20;;;;;;;;;;10412508;28;20466;-58
2022/09/30 22:17:38;;;;;;;4.50;1.40;;;;;;;;;;10412923;28;20044;-57
2022/09/30 22:22:39;;;;;;;1.67;1.08;;;;;;;;;;10412176;28;20030;-58
2022/09/30 22:27:40;;;;;;;2.65;1.35;;;;;;;;;;10411917;28;20029;-58
2022/09/30 22:32:40;;;;;;;2.72;1.30;;;;;;;;;;10411614;28;20033;-57
2022/09/30 22:38:13;;;;;;;1.75;1.30;;;;;;;;;;10411665;28;20026;-58
2022/09/30 22:43:06;;;;;;;2.38;1.48;;;;;;;;;;10411141;28;20538;-57
2022/09/30 22:48:06;;;;;;;5.97;1.20;;;;;;;;;;10411185;28;20028;-59
2022/09/30 22:53:06;;;;;;;2.00;1.20;;;;;;;;;;10411052;28;20032;-57
2022/09/30 22:58:07;;;;;;;3.88;1.15;;;;;;;;;;10410938;28;20434;-57
2022/09/30 23:03:08;;;;;;;2.10;1.20;;;;;;;;;;10410465;28;20033;-58
2022/09/30 23:08:09;;;;;;;3.88;1.00;;;;;;;;;;10410907;28;20030;-58
2022/09/30 23:13:12;;;;;;;2.15;1.10;;;;;;;;;;10409510;28;20527;-58
2022/09/30 23:18:12;;;;;;;2.88;1.30;;;;;;;;;;10410556;28;20036;-58
2022/09/30 23:23:13;;;;;;;1.08;0.80;;;;;;;;;;10410354;28;20041;-57
2022/09/30 23:28:13;;;;;;;2.88;1.02;;;;;;;;;;10409794;28;20164;-57
2022/09/30 23:33:13;;;;;;;3.03;1.13;;;;;;;;;;10409492;28;20032;-58
2022/09/30 23:38:14;;;;;;;1.17;1.00;;;;;;;;;;10408805;28;20492;-57
2022/09/30 23:43:14;;;;;;;2.22;1.00;;;;;;;;;;10409259;28;20030;-57
2022/09/30 23:48:15;;;;;;;1.33;1.23;;;;;;;;;;10409250;28;20029;-58
2022/09/30 23:53:15;;;;;;;2.30;1.20;;;;;;;;;;10409869;28;20032;-58
2022/09/30 23:58:16;;;;;;;3.10;1.13;;;;;;;;;;10409901;28;20264;-58
